sensor_id;sensor_type;location;lat;lon;timestamp;P1;durP1;ratioP1;P2;durP2;ratioP2
4744;SDS011;2386;42.138;24.746;2024-03-02T00:00:10;40.00;;;20.10;;
4744;SDS011;2386;42.138;24.746;2024-03-02T00:02:42;40.67;;;19.10;;
4744;SDS011;2386;42.138;24.746;2024-03-02T00:05:11;33.07;;;18.10;;
4744;SDS011;2386;42.138;24.746;2024-03-02T00:07:41;38.27;;;18.40;;
4744;SDS011;2386;42.138;24.746;2024-03-02T00:10:08;39.00;;;18.20;;
4744;SDS011;2386;42.138;24.746;2024-03-02T00:12:41;36.77;;;19.30;;
4744;SDS011;2386;42.138;24.746;2024-03-02T00:17:54;38.67;;;19.20;;
4744;SDS011;2386;42.138;24.746;2024-03-02T00:20:21;40.70;;;20.00;;
4744;SDS011;2386;42.138;24.746;2024-03-02T00:22:48;39.40;;;20.23;;
4744;SDS011;2386;42.138;24.746;2024-03-02T00:25:15;42.43;;;18.80;;
4744;SDS011;2386;42.138;24.746;2024-03-02T00:27:41;38.07;;;19.93;;
4744;SDS011;2386;42.138;24.746;2024-03-02T00:33:07;48.00;;;19.67;;
4744;SDS011;2386;42.138;24.746;2024-03-02T00:35:33;46.50;;;19.87;;
4744;SDS011;2386;42.138;24.746;2024-03-02T00:37:58;44.83;;;18.77;;
4744;SDS011;2386;42.138;24.746;2024-03-02T00:40:31;46.10;;;18.83;;
4744;SDS011;2386;42.138;24.746;2024-03-02T00:42:57;48.47;;;20.47;;
4744;SDS011;2386;42.138;24.746;2024-03-02T00:45:23;44.90;;;20.07;;
4744;SDS011;2386;42.138;24.746;2024-03-02T00:47:50;46.37;;;20.53;;
4744;SDS011;2386;42.138;24.746;2024-03-02T00:50:15;48.93;;;21.90;;
4744;SDS011;2386;42.138;24.746;2024-03-02T00:52:41;44.97;;;19.80;;
4744;SDS011;2386;42.138;24.746;2024-03-02T00:55:07;46.37;;;21.30;;
4744;SDS011;2386;42.138;24.746;2024-03-02T00:57:33;40.63;;;19.47;;
4744;SDS011;2386;42.138;24.746;2024-03-02T00:59:59;43.33;;;20.80;;
4744;SDS011;2386;42.138;24.746;2024-03-02T01:02:25;45.65;;;21.17;;
4744;SDS011;2386;42.138;24.746;2024-03-02T01:04:51;45.00;;;20.42;;
4744;SDS011;2386;42.138;24.746;2024-03-02T01:07:17;47.47;;;20.97;;
4744;SDS011;2386;42.138;24.746;2024-03-02T01:09:42;44.30;;;21.40;;
4744;SDS011;2386;42.138;24.746;2024-03-02T01:12:08;51.87;;;22.97;;
4744;SDS011;2386;42.138;24.746;2024-03-02T01:14:33;52.97;;;24.80;;
4744;SDS011;2386;42.138;24.746;2024-03-02T01:16:59;55.20;;;24.40;;
4744;SDS011;2386;42.138;24.746;2024-03-02T01:19:28;53.17;;;22.63;;
4744;SDS011;2386;42.138;24.746;2024-03-02T01:21:53;52.37;;;23.60;;
4744;SDS011;2386;42.138;24.746;2024-03-02T01:24:19;58.27;;;23.53;;
4744;SDS011;2386;42.138;24.746;2024-03-02T01:26:44;65.43;;;24.10;;
4744;SDS011;2386;42.138;24.746;2024-03-02T01:29:10;50.90;;;23.03;;
4744;SDS011;2386;42.138;24.746;2024-03-02T01:31:35;51.57;;;23.70;;
4744;SDS011;2386;42.138;24.746;2024-03-02T01:34:00;54.30;;;23.67;;
4744;SDS011;2386;42.138;24.746;2024-03-02T01:36:26;65.73;;;25.90;;
4744;SDS011;2386;42.138;24.746;2024-03-02T01:38:51;67.77;;;25.50;;
4744;SDS011;2386;42.138;24.746;2024-03-02T01:41:16;62.20;;;26.20;;
4744;SDS011;2386;42.138;24.746;2024-03-02T01:43:42;76.73;;;25.70;;
4744;SDS011;2386;42.138;24.746;2024-03-02T01:46:07;70.40;;;26.53;;
4744;SDS011;2386;42.138;24.746;2024-03-02T01:48:34;72.20;;;27.77;;
4744;SDS011;2386;42.138;24.746;2024-03-02T01:50:59;69.20;;;26.37;;
4744;SDS011;2386;42.138;24.746;2024-03-02T01:53:24;63.07;;;24.10;;
4744;SDS011;2386;42.138;24.746;2024-03-02T01:55:50;68.17;;;26.97;;
4744;SDS011;2386;42.138;24.746;2024-03-02T01:58:15;68.73;;;26.20;;
4744;SDS011;2386;42.138;24.746;2024-03-02T02:00:41;68.17;;;25.37;;
4744;SDS011;2386;42.138;24.746;2024-03-02T02:03:07;62.70;;;25.07;;
4744;SDS011;2386;42.138;24.746;2024-03-02T02:05:33;61.83;;;25.70;;
4744;SDS011;2386;42.138;24.746;2024-03-02T02:08:00;64.90;;;25.33;;
4744;SDS011;2386;42.138;24.746;2024-03-02T02:10:26;50.03;;;22.20;;
4744;SDS011;2386;42.138;24.746;2024-03-02T02:12:52;64.57;;;25.63;;
4744;SDS011;2386;42.138;24.746;2024-03-02T02:15:29;58.77;;;23.17;;
4744;SDS011;2386;42.138;24.746;2024-03-02T02:17:57;57.50;;;22.40;;
4744;SDS011;2386;42.138;24.746;2024-03-02T02:20:24;52.97;;;23.07;;
4744;SDS011;2386;42.138;24.746;2024-03-02T02:23:07;54.53;;;21.50;;
4744;SDS011;2386;42.138;24.746;2024-03-02T02:25:35;52.73;;;21.20;;
4744;SDS011;2386;42.138;24.746;2024-03-02T02:28:00;49.97;;;20.20;;
4744;SDS011;2386;42.138;24.746;2024-03-02T02:30:27;54.10;;;21.60;;
4744;SDS011;2386;42.138;24.746;2024-03-02T02:32:53;42.97;;;21.20;;
4744;SDS011;2386;42.138;24.746;2024-03-02T02:35:19;50.10;;;21.10;;
4744;SDS011;2386;42.138;24.746;2024-03-02T02:37:45;44.57;;;21.43;;
4744;SDS011;2386;42.138;24.746;2024-03-02T02:40:12;48.13;;;20.13;;
4744;SDS011;2386;42.138;24.746;2024-03-02T02:42:38;41.23;;;20.30;;
4744;SDS011;2386;42.138;24.746;2024-03-02T02:45:04;42.77;;;20.10;;
4744;SDS011;2386;42.138;24.746;2024-03-02T02:47:30;46.55;;;19.10;;
4744;SDS011;2386;42.138;24.746;2024-03-02T02:49:57;41.63;;;19.93;;
4744;SDS011;2386;42.138;24.746;2024-03-02T02:52:22;53.30;;;21.00;;
4744;SDS011;2386;42.138;24.746;2024-03-02T02:54:48;43.63;;;19.03;;
4744;SDS011;2386;42.138;24.746;2024-03-02T02:57:13;44.50;;;19.70;;
4744;SDS011;2386;42.138;24.746;2024-03-02T02:59:38;49.47;;;20.53;;
4744;SDS011;2386;42.138;24.746;2024-03-02T03:02:04;41.10;;;20.03;;
4744;SDS011;2386;42.138;24.746;2024-03-02T03:04:30;36.70;;;18.37;;
4744;SDS011;2386;42.138;24.746;2024-03-02T03:06:55;41.93;;;19.17;;
4744;SDS011;2386;42.138;24.746;2024-03-02T03:09:21;50.13;;;20.20;;
4744;SDS011;2386;42.138;24.746;2024-03-02T03:11:46;44.17;;;19.67;;
4744;SDS011;2386;42.138;24.746;2024-03-02T03:14:11;40.73;;;20.60;;
4744;SDS011;2386;42.138;24.746;2024-03-02T03:16:37;40.97;;;21.77;;
4744;SDS011;2386;42.138;24.746;2024-03-02T03:19:03;37.03;;;19.47;;
4744;SDS011;2386;42.138;24.746;2024-03-02T03:21:29;50.47;;;20.50;;
4744;SDS011;2386;42.138;24.746;2024-03-02T03:23:54;38.00;;;19.60;;
4744;SDS011;2386;42.138;24.746;2024-03-02T03:26:20;48.17;;;19.87;;
4744;SDS011;2386;42.138;24.746;2024-03-02T03:28:45;35.53;;;18.17;;
4744;SDS011;2386;42.138;24.746;2024-03-02T03:31:11;43.70;;;19.50;;
4744;SDS011;2386;42.138;24.746;2024-03-02T03:33:36;33.63;;;17.27;;
4744;SDS011;2386;42.138;24.746;2024-03-02T03:36:02;37.80;;;19.30;;
4744;SDS011;2386;42.138;24.746;2024-03-02T03:38:28;41.75;;;19.45;;
4744;SDS011;2386;42.138;24.746;2024-03-02T03:40:54;41.43;;;18.90;;
4744;SDS011;2386;42.138;24.746;2024-03-02T03:43:20;37.27;;;18.70;;
4744;SDS011;2386;42.138;24.746;2024-03-02T03:45:45;45.60;;;19.10;;
4744;SDS011;2386;42.138;24.746;2024-03-02T03:48:10;37.90;;;18.73;;
4744;SDS011;2386;42.138;24.746;2024-03-02T03:50:36;35.47;;;18.07;;
4744;SDS011;2386;42.138;24.746;2024-03-02T03:53:02;41.57;;;19.57;;
4744;SDS011;2386;42.138;24.746;2024-03-02T03:55:28;38.43;;;20.10;;
4744;SDS011;2386;42.138;24.746;2024-03-02T03:57:53;41.90;;;20.70;;
4744;SDS011;2386;42.138;24.746;2024-03-02T04:00:19;42.17;;;19.67;;
4744;SDS011;2386;42.138;24.746;2024-03-02T04:02:44;50.53;;;21.70;;
4744;SDS011;2386;42.138;24.746;2024-03-02T04:05:09;34.93;;;19.40;;
4744;SDS011;2386;42.138;24.746;2024-03-02T04:07:38;44.73;;;21.43;;
4744;SDS011;2386;42.138;24.746;2024-03-02T04:10:08;42.80;;;21.43;;
4744;SDS011;2386;42.138;24.746;2024-03-02T04:12:35;43.43;;;20.80;;
4744;SDS011;2386;42.138;24.746;2024-03-02T04:15:04;37.03;;;18.43;;
4744;SDS011;2386;42.138;24.746;2024-03-02T04:17:31;51.33;;;20.60;;
4744;SDS011;2386;42.138;24.746;2024-03-02T04:19:58;49.17;;;20.10;;
4744;SDS011;2386;42.138;24.746;2024-03-02T04:22:24;42.83;;;19.00;;
4744;SDS011;2386;42.138;24.746;2024-03-02T04:24:50;39.17;;;20.07;;
4744;SDS011;2386;42.138;24.746;2024-03-02T04:27:16;46.87;;;21.27;;
4744;SDS011;2386;42.138;24.746;2024-03-02T04:29:41;48.63;;;20.27;;
4744;SDS011;2386;42.138;24.746;2024-03-02T04:32:06;45.87;;;18.83;;
4744;SDS011;2386;42.138;24.746;2024-03-02T04:34:32;38.73;;;19.60;;
4744;SDS011;2386;42.138;24.746;2024-03-02T04:36:59;44.83;;;19.10;;
4744;SDS011;2386;42.138;24.746;2024-03-02T04:39:24;40.57;;;19.97;;
4744;SDS011;2386;42.138;24.746;2024-03-02T04:41:51;36.73;;;18.47;;
4744;SDS011;2386;42.138;24.746;2024-03-02T04:44:18;43.40;;;21.33;;
4744;SDS011;2386;42.138;24.746;2024-03-02T04:46:43;50.53;;;20.40;;
4744;SDS011;2386;42.138;24.746;2024-03-02T04:49:08;58.50;;;21.50;;
4744;SDS011;2386;42.138;24.746;2024-03-02T04:51:34;48.23;;;21.33;;
4744;SDS011;2386;42.138;24.746;2024-03-02T04:54:00;48.47;;;21.40;;
4744;SDS011;2386;42.138;24.746;2024-03-02T04:56:26;45.00;;;20.90;;
4744;SDS011;2386;42.138;24.746;2024-03-02T04:58:51;46.53;;;21.33;;
4744;SDS011;2386;42.138;24.746;2024-03-02T05:01:16;48.33;;;20.80;;
4744;SDS011;2386;42.138;24.746;2024-03-02T05:03:42;44.97;;;19.30;;
4744;SDS011;2386;42.138;24.746;2024-03-02T05:06:07;49.37;;;20.50;;
4744;SDS011;2386;42.138;24.746;2024-03-02T05:08:33;42.57;;;18.37;;
4744;SDS011;2386;42.138;24.746;2024-03-02T05:10:59;49.57;;;21.33;;
4744;SDS011;2386;42.138;24.746;2024-03-02T05:13:45;45.57;;;19.23;;
4744;SDS011;2386;42.138;24.746;2024-03-02T05:16:10;47.87;;;18.87;;
4744;SDS011;2386;42.138;24.746;2024-03-02T05:18:37;43.27;;;18.50;;
4744;SDS011;2386;42.138;24.746;2024-03-02T05:21:03;42.93;;;20.13;;
4744;SDS011;2386;42.138;24.746;2024-03-02T05:23:28;47.50;;;20.23;;
4744;SDS011;2386;42.138;24.746;2024-03-02T05:25:54;40.10;;;19.27;;
4744;SDS011;2386;42.138;24.746;2024-03-02T05:28:19;40.17;;;19.57;;
4744;SDS011;2386;42.138;24.746;2024-03-02T05:30:44;45.17;;;20.07;;
4744;SDS011;2386;42.138;24.746;2024-03-02T05:33:10;37.37;;;17.27;;
4744;SDS011;2386;42.138;24.746;2024-03-02T05:35:35;48.70;;;18.87;;
4744;SDS011;2386;42.138;24.746;2024-03-02T05:38:01;37.97;;;17.70;;
4744;SDS011;2386;42.138;24.746;2024-03-02T05:40:26;40.97;;;18.03;;
4744;SDS011;2386;42.138;24.746;2024-03-02T05:42:51;40.97;;;18.83;;
4744;SDS011;2386;42.138;24.746;2024-03-02T05:45:17;34.70;;;16.80;;
4744;SDS011;2386;42.138;24.746;2024-03-02T05:47:42;40.10;;;18.10;;
4744;SDS011;2386;42.138;24.746;2024-03-02T05:50:08;41.30;;;18.07;;
4744;SDS011;2386;42.138;24.746;2024-03-02T05:52:34;37.00;;;17.47;;
4744;SDS011;2386;42.138;24.746;2024-03-02T05:55:00;40.00;;;19.17;;
4744;SDS011;2386;42.138;24.746;2024-03-02T05:57:27;34.13;;;17.47;;
4744;SDS011;2386;42.138;24.746;2024-03-02T06:00:23;29.57;;;16.77;;
4744;SDS011;2386;42.138;24.746;2024-03-02T06:02:48;36.80;;;17.17;;
4744;SDS011;2386;42.138;24.746;2024-03-02T06:05:14;42.27;;;18.63;;
4744;SDS011;2386;42.138;24.746;2024-03-02T06:07:40;36.88;;;17.08;;
4744;SDS011;2386;42.138;24.746;2024-03-02T06:10:06;32.30;;;16.00;;
4744;SDS011;2386;42.138;24.746;2024-03-02T06:12:33;33.90;;;16.40;;
4744;SDS011;2386;42.138;24.746;2024-03-02T06:14:59;32.27;;;15.70;;
4744;SDS011;2386;42.138;24.746;2024-03-02T06:17:24;32.73;;;15.53;;
4744;SDS011;2386;42.138;24.746;2024-03-02T06:19:50;36.00;;;16.30;;
4744;SDS011;2386;42.138;24.746;2024-03-02T06:22:17;28.50;;;14.90;;
4744;SDS011;2386;42.138;24.746;2024-03-02T06:24:44;31.00;;;14.50;;
4744;SDS011;2386;42.138;24.746;2024-03-02T06:27:09;40.80;;;16.03;;
4744;SDS011;2386;42.138;24.746;2024-03-02T06:29:35;34.87;;;15.90;;
4744;SDS011;2386;42.138;24.746;2024-03-02T06:32:00;33.70;;;16.60;;
4744;SDS011;2386;42.138;24.746;2024-03-02T06:34:25;34.57;;;15.90;;
4744;SDS011;2386;42.138;24.746;2024-03-02T06:36:51;31.10;;;15.60;;
4744;SDS011;2386;42.138;24.746;2024-03-02T06:39:16;27.80;;;14.07;;
4744;SDS011;2386;42.138;24.746;2024-03-02T06:41:41;28.23;;;15.07;;
4744;SDS011;2386;42.138;24.746;2024-03-02T06:44:12;28.07;;;15.23;;
4744;SDS011;2386;42.138;24.746;2024-03-02T06:46:37;27.27;;;14.63;;
4744;SDS011;2386;42.138;24.746;2024-03-02T06:49:03;26.00;;;12.87;;
4744;SDS011;2386;42.138;24.746;2024-03-02T06:51:29;26.20;;;13.70;;
4744;SDS011;2386;42.138;24.746;2024-03-02T06:53:54;23.57;;;13.13;;
4744;SDS011;2386;42.138;24.746;2024-03-02T06:56:20;30.07;;;13.73;;
4744;SDS011;2386;42.138;24.746;2024-03-02T06:58:45;25.50;;;13.90;;
4744;SDS011;2386;42.138;24.746;2024-03-02T07:01:12;28.30;;;13.87;;
4744;SDS011;2386;42.138;24.746;2024-03-02T07:03:38;28.60;;;13.27;;
4744;SDS011;2386;42.138;24.746;2024-03-02T07:06:04;22.87;;;14.10;;
4744;SDS011;2386;42.138;24.746;2024-03-02T07:08:30;34.03;;;17.07;;
4744;SDS011;2386;42.138;24.746;2024-03-02T07:10:56;64.57;;;35.23;;
4744;SDS011;2386;42.138;24.746;2024-03-02T07:13:22;26.13;;;15.40;;
4744;SDS011;2386;42.138;24.746;2024-03-02T07:15:47;32.43;;;14.10;;
4744;SDS011;2386;42.138;24.746;2024-03-02T07:18:28;27.03;;;14.60;;
4744;SDS011;2386;42.138;24.746;2024-03-02T07:20:57;30.13;;;13.53;;
4744;SDS011;2386;42.138;24.746;2024-03-02T07:23:29;24.75;;;13.25;;
4744;SDS011;2386;42.138;24.746;2024-03-02T07:25:55;27.50;;;13.57;;
4744;SDS011;2386;42.138;24.746;2024-03-02T07:28:21;27.03;;;14.60;;
4744;SDS011;2386;42.138;24.746;2024-03-02T07:30:50;26.93;;;13.80;;
4744;SDS011;2386;42.138;24.746;2024-03-02T07:33:26;28.20;;;14.40;;
4744;SDS011;2386;42.138;24.746;2024-03-02T07:35:51;31.23;;;14.90;;
4744;SDS011;2386;42.138;24.746;2024-03-02T07:38:17;27.00;;;14.53;;
4744;SDS011;2386;42.138;24.746;2024-03-02T07:40:43;26.43;;;13.27;;
4744;SDS011;2386;42.138;24.746;2024-03-02T07:43:08;28.73;;;15.53;;
4744;SDS011;2386;42.138;24.746;2024-03-02T07:45:34;28.17;;;15.37;;
4744;SDS011;2386;42.138;24.746;2024-03-02T07:48:01;30.30;;;14.90;;
4744;SDS011;2386;42.138;24.746;2024-03-02T07:50:29;26.43;;;14.47;;
4744;SDS011;2386;42.138;24.746;2024-03-02T07:52:55;27.80;;;14.27;;
4744;SDS011;2386;42.138;24.746;2024-03-02T07:55:20;28.07;;;15.07;;
4744;SDS011;2386;42.138;24.746;2024-03-02T07:57:46;23.37;;;12.73;;
4744;SDS011;2386;42.138;24.746;2024-03-02T08:00:11;26.63;;;15.40;;
4744;SDS011;2386;42.138;24.746;2024-03-02T08:02:37;26.17;;;14.47;;
4744;SDS011;2386;42.138;24.746;2024-03-02T08:05:03;24.73;;;13.40;;
4744;SDS011;2386;42.138;24.746;2024-03-02T08:07:29;23.77;;;14.00;;
4744;SDS011;2386;42.138;24.746;2024-03-02T08:09:55;22.97;;;13.47;;
4744;SDS011;2386;42.138;24.746;2024-03-02T08:12:20;28.47;;;15.20;;
4744;SDS011;2386;42.138;24.746;2024-03-02T08:14:48;32.45;;;16.92;;
4744;SDS011;2386;42.138;24.746;2024-03-02T08:17:13;35.53;;;17.80;;
4744;SDS011;2386;42.138;24.746;2024-03-02T08:19:39;27.60;;;14.60;;
4744;SDS011;2386;42.138;24.746;2024-03-02T08:22:06;25.03;;;14.17;;
4744;SDS011;2386;42.138;24.746;2024-03-02T08:24:32;24.30;;;13.40;;
4744;SDS011;2386;42.138;24.746;2024-03-02T08:26:58;25.63;;;14.03;;
4744;SDS011;2386;42.138;24.746;2024-03-02T08:29:24;25.33;;;14.13;;
4744;SDS011;2386;42.138;24.746;2024-03-02T08:31:51;23.10;;;12.80;;
4744;SDS011;2386;42.138;24.746;2024-03-02T08:34:16;20.30;;;13.20;;
4744;SDS011;2386;42.138;24.746;2024-03-02T08:36:41;23.47;;;13.60;;
4744;SDS011;2386;42.138;24.746;2024-03-02T08:39:07;21.13;;;12.80;;
4744;SDS011;2386;42.138;24.746;2024-03-02T08:41:41;19.13;;;12.27;;
4744;SDS011;2386;42.138;24.746;2024-03-02T08:44:08;22.47;;;11.67;;
4744;SDS011;2386;42.138;24.746;2024-03-02T08:46:34;27.10;;;15.33;;
4744;SDS011;2386;42.138;24.746;2024-03-02T08:48:59;29.17;;;17.17;;
4744;SDS011;2386;42.138;24.746;2024-03-02T08:51:25;28.90;;;16.10;;
4744;SDS011;2386;42.138;24.746;2024-03-02T08:53:50;17.93;;;12.10;;
4744;SDS011;2386;42.138;24.746;2024-03-02T08:56:16;29.37;;;15.40;;
4744;SDS011;2386;42.138;24.746;2024-03-02T08:58:41;24.80;;;13.33;;
4744;SDS011;2386;42.138;24.746;2024-03-02T09:01:09;20.10;;;13.37;;
4744;SDS011;2386;42.138;24.746;2024-03-02T09:03:36;27.27;;;14.33;;
4744;SDS011;2386;42.138;24.746;2024-03-02T09:06:02;24.30;;;13.07;;
4744;SDS011;2386;42.138;24.746;2024-03-02T09:08:28;27.90;;;13.83;;
4744;SDS011;2386;42.138;24.746;2024-03-02T09:10:53;33.90;;;14.50;;
4744;SDS011;2386;42.138;24.746;2024-03-02T09:13:19;26.13;;;14.00;;
4744;SDS011;2386;42.138;24.746;2024-03-02T09:15:45;37.93;;;14.13;;
4744;SDS011;2386;42.138;24.746;2024-03-02T09:18:10;27.07;;;13.93;;
4744;SDS011;2386;42.138;24.746;2024-03-02T09:20:36;34.93;;;14.90;;
4744;SDS011;2386;42.138;24.746;2024-03-02T09:23:01;28.80;;;14.47;;
4744;SDS011;2386;42.138;24.746;2024-03-02T09:25:27;27.23;;;14.73;;
4744;SDS011;2386;42.138;24.746;2024-03-02T09:27:52;29.53;;;14.80;;
4744;SDS011;2386;42.138;24.746;2024-03-02T09:30:18;37.00;;;14.97;;
4744;SDS011;2386;42.138;24.746;2024-03-02T09:32:43;29.67;;;14.87;;
4744;SDS011;2386;42.138;24.746;2024-03-02T09:35:08;25.37;;;14.47;;
4744;SDS011;2386;42.138;24.746;2024-03-02T09:37:34;27.33;;;15.67;;
4744;SDS011;2386;42.138;24.746;2024-03-02T09:40:00;29.30;;;16.60;;
4744;SDS011;2386;42.138;24.746;2024-03-02T09:42:26;27.23;;;15.00;;
4744;SDS011;2386;42.138;24.746;2024-03-02T09:44:52;29.00;;;15.83;;
4744;SDS011;2386;42.138;24.746;2024-03-02T09:47:17;30.70;;;15.27;;
4744;SDS011;2386;42.138;24.746;2024-03-02T09:49:43;27.07;;;14.40;;
4744;SDS011;2386;42.138;24.746;2024-03-02T09:52:09;31.23;;;15.77;;
4744;SDS011;2386;42.138;24.746;2024-03-02T09:54:35;33.00;;;16.33;;
4744;SDS011;2386;42.138;24.746;2024-03-02T09:57:02;31.33;;;16.90;;
4744;SDS011;2386;42.138;24.746;2024-03-02T09:59:27;31.83;;;17.38;;
4744;SDS011;2386;42.138;24.746;2024-03-02T10:02:00;39.93;;;19.50;;
4744;SDS011;2386;42.138;24.746;2024-03-02T10:04:27;39.50;;;18.10;;
4744;SDS011;2386;42.138;24.746;2024-03-02T10:07:09;33.60;;;16.17;;
4744;SDS011;2386;42.138;24.746;2024-03-02T10:09:38;34.80;;;16.77;;
4744;SDS011;2386;42.138;24.746;2024-03-02T10:12:05;28.90;;;16.90;;
4744;SDS011;2386;42.138;24.746;2024-03-02T10:14:32;35.40;;;17.63;;
4744;SDS011;2386;42.138;24.746;2024-03-02T10:17:03;28.20;;;17.03;;
4744;SDS011;2386;42.138;24.746;2024-03-02T10:19:29;27.97;;;15.40;;
4744;SDS011;2386;42.138;24.746;2024-03-02T10:21:58;29.60;;;16.33;;
4744;SDS011;2386;42.138;24.746;2024-03-02T10:24:24;30.10;;;16.30;;
4744;SDS011;2386;42.138;24.746;2024-03-02T10:26:50;28.00;;;15.40;;
4744;SDS011;2386;42.138;24.746;2024-03-02T10:29:17;37.00;;;17.33;;
4744;SDS011;2386;42.138;24.746;2024-03-02T10:31:43;28.13;;;15.60;;
4744;SDS011;2386;42.138;24.746;2024-03-02T10:34:10;35.47;;;17.60;;
4744;SDS011;2386;42.138;24.746;2024-03-02T10:36:37;28.93;;;16.90;;
4744;SDS011;2386;42.138;24.746;2024-03-02T10:39:06;31.73;;;15.50;;
4744;SDS011;2386;42.138;24.746;2024-03-02T10:41:34;27.87;;;14.87;;
4744;SDS011;2386;42.138;24.746;2024-03-02T10:44:03;24.67;;;15.87;;
4744;SDS011;2386;42.138;24.746;2024-03-02T10:46:34;31.43;;;16.63;;
4744;SDS011;2386;42.138;24.746;2024-03-02T10:49:02;32.43;;;17.57;;
4744;SDS011;2386;42.138;24.746;2024-03-02T10:51:30;30.73;;;17.10;;
4744;SDS011;2386;42.138;24.746;2024-03-02T10:54:01;25.57;;;16.20;;
4744;SDS011;2386;42.138;24.746;2024-03-02T10:56:29;31.10;;;15.63;;
4744;SDS011;2386;42.138;24.746;2024-03-02T11:01:47;32.13;;;17.87;;
4744;SDS011;2386;42.138;24.746;2024-03-02T11:04:13;34.53;;;18.60;;
4744;SDS011;2386;42.138;24.746;2024-03-02T11:06:42;34.37;;;17.70;;
4744;SDS011;2386;42.138;24.746;2024-03-02T11:09:13;36.95;;;19.35;;
4744;SDS011;2386;42.138;24.746;2024-03-02T11:11:40;39.60;;;21.27;;
4744;SDS011;2386;42.138;24.746;2024-03-02T11:14:10;36.23;;;19.60;;
4744;SDS011;2386;42.138;24.746;2024-03-02T11:16:40;34.30;;;19.77;;
4744;SDS011;2386;42.138;24.746;2024-03-02T11:19:07;41.60;;;21.20;;
4744;SDS011;2386;42.138;24.746;2024-03-02T11:21:35;35.63;;;19.57;;
4744;SDS011;2386;42.138;24.746;2024-03-02T11:26:46;41.90;;;21.73;;
4744;SDS011;2386;42.138;24.746;2024-03-02T11:29:33;33.37;;;19.40;;
4744;SDS011;2386;42.138;24.746;2024-03-02T11:32:06;30.47;;;18.30;;
4744;SDS011;2386;42.138;24.746;2024-03-02T11:34:39;29.08;;;17.25;;
4744;SDS011;2386;42.138;24.746;2024-03-02T11:37:10;36.17;;;20.20;;
4744;SDS011;2386;42.138;24.746;2024-03-02T11:39:36;40.10;;;18.70;;
4744;SDS011;2386;42.138;24.746;2024-03-02T11:42:04;28.90;;;18.20;;
4744;SDS011;2386;42.138;24.746;2024-03-02T11:44:32;33.33;;;19.10;;
4744;SDS011;2386;42.138;24.746;2024-03-02T11:47:01;38.00;;;20.00;;
4744;SDS011;2386;42.138;24.746;2024-03-02T11:49:40;33.67;;;19.33;;
4744;SDS011;2386;42.138;24.746;2024-03-02T11:52:08;31.93;;;18.87;;
4744;SDS011;2386;42.138;24.746;2024-03-02T11:54:36;31.03;;;18.47;;
4744;SDS011;2386;42.138;24.746;2024-03-02T11:57:04;29.13;;;18.40;;
4744;SDS011;2386;42.138;24.746;2024-03-02T11:59:31;32.67;;;19.30;;
4744;SDS011;2386;42.138;24.746;2024-03-02T12:01:57;24.67;;;17.23;;
4744;SDS011;2386;42.138;24.746;2024-03-02T12:04:23;27.43;;;17.40;;
4744;SDS011;2386;42.138;24.746;2024-03-02T12:06:56;29.13;;;17.97;;
4744;SDS011;2386;42.138;24.746;2024-03-02T12:09:26;26.03;;;16.47;;
4744;SDS011;2386;42.138;24.746;2024-03-02T12:12:05;27.10;;;16.83;;
4744;SDS011;2386;42.138;24.746;2024-03-02T12:14:33;26.97;;;16.30;;
4744;SDS011;2386;42.138;24.746;2024-03-02T12:16:59;24.63;;;16.50;;
4744;SDS011;2386;42.138;24.746;2024-03-02T12:19:25;22.80;;;15.13;;
4744;SDS011;2386;42.138;24.746;2024-03-02T12:21:52;26.30;;;16.60;;
4744;SDS011;2386;42.138;24.746;2024-03-02T12:24:18;24.00;;;15.60;;
4744;SDS011;2386;42.138;24.746;2024-03-02T12:26:43;24.40;;;15.93;;
4744;SDS011;2386;42.138;24.746;2024-03-02T12:29:09;27.77;;;17.73;;
4744;SDS011;2386;42.138;24.746;2024-03-02T12:31:35;28.57;;;16.73;;
4744;SDS011;2386;42.138;24.746;2024-03-02T12:34:01;23.97;;;16.70;;
4744;SDS011;2386;42.138;24.746;2024-03-02T12:36:29;28.23;;;17.20;;
4744;SDS011;2386;42.138;24.746;2024-03-02T12:39:01;28.50;;;18.13;;
4744;SDS011;2386;42.138;24.746;2024-03-02T12:41:27;22.20;;;16.10;;
4744;SDS011;2386;42.138;24.746;2024-03-02T12:43:52;29.57;;;17.90;;
4744;SDS011;2386;42.138;24.746;2024-03-02T12:46:19;19.98;;;13.43;;
4744;SDS011;2386;42.138;24.746;2024-03-02T12:48:44;24.07;;;14.90;;
4744;SDS011;2386;42.138;24.746;2024-03-02T12:51:10;24.97;;;16.30;;
4744;SDS011;2386;42.138;24.746;2024-03-02T12:53:36;22.27;;;15.38;;
4744;SDS011;2386;42.138;24.746;2024-03-02T12:56:01;25.23;;;16.33;;
4744;SDS011;2386;42.138;24.746;2024-03-02T12:58:27;25.50;;;16.50;;
4744;SDS011;2386;42.138;24.746;2024-03-02T13:01:07;27.77;;;18.90;;
4744;SDS011;2386;42.138;24.746;2024-03-02T13:03:39;29.08;;;18.45;;
4744;SDS011;2386;42.138;24.746;2024-03-02T13:06:07;32.10;;;19.80;;
4744;SDS011;2386;42.138;24.746;2024-03-02T13:08:33;28.17;;;18.00;;
4744;SDS011;2386;42.138;24.746;2024-03-02T13:11:00;26.25;;;18.13;;
4744;SDS011;2386;42.138;24.746;2024-03-02T13:13:26;27.60;;;18.00;;
4744;SDS011;2386;42.138;24.746;2024-03-02T13:15:54;22.57;;;15.97;;
4744;SDS011;2386;42.138;24.746;2024-03-02T13:18:21;25.25;;;16.85;;
4744;SDS011;2386;42.138;24.746;2024-03-02T13:20:46;22.00;;;15.67;;
4744;SDS011;2386;42.138;24.746;2024-03-02T13:23:12;27.30;;;17.27;;
4744;SDS011;2386;42.138;24.746;2024-03-02T13:25:37;28.00;;;18.67;;
4744;SDS011;2386;42.138;24.746;2024-03-02T13:28:03;33.00;;;20.40;;
4744;SDS011;2386;42.138;24.746;2024-03-02T13:30:28;30.20;;;19.70;;
4744;SDS011;2386;42.138;24.746;2024-03-02T13:32:54;29.90;;;20.10;;
4744;SDS011;2386;42.138;24.746;2024-03-02T13:35:19;33.27;;;20.87;;
4744;SDS011;2386;42.138;24.746;2024-03-02T13:37:45;27.43;;;18.73;;
4744;SDS011;2386;42.138;24.746;2024-03-02T13:40:10;27.17;;;17.03;;
4744;SDS011;2386;42.138;24.746;2024-03-02T13:42:41;24.60;;;17.60;;
4744;SDS011;2386;42.138;24.746;2024-03-02T13:45:07;28.60;;;18.53;;
4744;SDS011;2386;42.138;24.746;2024-03-02T13:47:33;31.40;;;21.00;;
4744;SDS011;2386;42.138;24.746;2024-03-02T13:49:58;28.83;;;19.73;;
4744;SDS011;2386;42.138;24.746;2024-03-02T13:52:24;29.07;;;18.47;;
4744;SDS011;2386;42.138;24.746;2024-03-02T13:54:51;25.53;;;17.40;;
4744;SDS011;2386;42.138;24.746;2024-03-02T13:57:17;32.97;;;18.20;;
4744;SDS011;2386;42.138;24.746;2024-03-02T13:59:44;27.00;;;17.13;;
4744;SDS011;2386;42.138;24.746;2024-03-02T14:02:10;26.97;;;16.30;;
4744;SDS011;2386;42.138;24.746;2024-03-02T14:04:38;27.23;;;18.20;;
4744;SDS011;2386;42.138;24.746;2024-03-02T14:07:04;27.50;;;17.93;;
4744;SDS011;2386;42.138;24.746;2024-03-02T14:09:33;24.67;;;17.10;;
4744;SDS011;2386;42.138;24.746;2024-03-02T14:11:58;22.63;;;15.97;;
4744;SDS011;2386;42.138;24.746;2024-03-02T14:14:26;26.27;;;15.10;;
4744;SDS011;2386;42.138;24.746;2024-03-02T14:16:52;21.17;;;14.90;;
4744;SDS011;2386;42.138;24.746;2024-03-02T14:19:31;22.80;;;14.80;;
4744;SDS011;2386;42.138;24.746;2024-03-02T14:21:57;23.40;;;15.57;;
4744;SDS011;2386;42.138;24.746;2024-03-02T14:24:22;26.97;;;15.43;;
4744;SDS011;2386;42.138;24.746;2024-03-02T14:26:51;23.47;;;16.63;;
4744;SDS011;2386;42.138;24.746;2024-03-02T14:29:16;24.43;;;15.47;;
4744;SDS011;2386;42.138;24.746;2024-03-02T14:31:43;23.83;;;15.38;;
4744;SDS011;2386;42.138;24.746;2024-03-02T14:34:10;24.97;;;15.63;;
4744;SDS011;2386;42.138;24.746;2024-03-02T14:36:35;23.90;;;15.03;;
4744;SDS011;2386;42.138;24.746;2024-03-02T14:39:01;26.57;;;16.60;;
4744;SDS011;2386;42.138;24.746;2024-03-02T14:41:26;24.73;;;17.07;;